CheckWX is a tool to help pilots better visualize weather data.  It is not intended as a substitute for an official pre-flight weather briefing.

22:10:41 UTC

KLUK TAF
Cincinnati Municipal Lunken Field Airport
Cincinnati, Ohio, USA
KLUK 311740Z 3118/0118 02005KT P6SM OVC045 TEMPO 3122/0102 OVC030 FM010300 34007KT P6SM SCT018 OVC030 FM011000 35008KT P6SM OVC020 TEMPO 0110/0114 BKN015 OVC025 FM011600 35008KT P6SM BKN030

Mar-31@
18:00 UTC

Mar-31 @ 18:00 UTC

Apr-1@
03:00 UTC

Apr-1 @ 03:00 UTC

TAF KLUK 311740Z 3118/0118 02005KT P6SM OVC045
Wind
  • 020° at 5 KTS
Cloud Levels
  • Overcast at 4,500' AGL

Mar-31@
22:00 UTC

Mar-31 @ 22:00 UTC

Apr-1@
02:00 UTC

Apr-1 @ 02:00 UTC

TEMPO 3122/0102 OVC030

Temporary

Temporary Changes expected for less than half the time period

Cloud Levels
  • Overcast at 3,000' AGL

Apr-1@
03:00 UTC

Apr-1 @ 03:00 UTC

Apr-1@
10:00 UTC

Apr-1 @ 10:00 UTC

FM010300 34007KT P6SM SCT018 OVC030

From

From Standard forecast or significant change

Wind
  • 340° at 7 KTS
Cloud Levels
  • Scattered at 1,800' AGL
  • Overcast at 3,000' AGL

Apr-1@
10:00 UTC

Apr-1 @ 10:00 UTC

Apr-1@
14:00 UTC

Apr-1 @ 14:00 UTC

TEMPO 0110/0114 BKN015 OVC025

Temporary

Temporary Changes expected for less than half the time period

Cloud Levels
  • Broken at 1,500' AGL
  • Overcast at 2,500' AGL

Apr-1@
10:00 UTC

Apr-1 @ 10:00 UTC

Apr-1@
16:00 UTC

Apr-1 @ 16:00 UTC

FM011000 35008KT P6SM OVC020

From

From Standard forecast or significant change

Wind
  • 350° at 8 KTS
Cloud Levels
  • Overcast at 2,000' AGL

Apr-1@
16:00 UTC

Apr-1 @ 16:00 UTC

Apr-1@
18:00 UTC

Apr-1 @ 18:00 UTC

FM011600 35008KT P6SM BKN030

From

From Standard forecast or significant change

Wind
  • 350° at 8 KTS
Cloud Levels
  • Broken at 3,000' AGL